sensor_id;sensor_type;location;lat;lon;timestamp;P1;durP1;ratioP1;P2;durP2;ratioP2
22007;SDS011;11168;56.976;24.168;2023-07-13T08:06:08;8.13;;;4.30;;
22007;SDS011;11168;56.976;24.168;2023-07-13T08:08:55;11.13;;;4.35;;
22007;SDS011;11168;56.976;24.168;2023-07-13T08:11:22;7.57;;;4.05;;
22007;SDS011;11168;56.976;24.168;2023-07-13T08:13:52;9.70;;;4.20;;
22007;SDS011;11168;56.976;24.168;2023-07-13T08:16:21;9.23;;;5.13;;
22007;SDS011;11168;56.976;24.168;2023-07-13T08:18:48;6.00;;;3.72;;
22007;SDS011;11168;56.976;24.168;2023-07-13T08:21:15;6.57;;;3.85;;
22007;SDS011;11168;56.976;24.168;2023-07-13T08:23:43;6.68;;;3.28;;
22007;SDS011;11168;56.976;24.168;2023-07-13T08:26:10;4.72;;;3.55;;
22007;SDS011;11168;56.976;24.168;2023-07-13T08:28:37;5.53;;;3.42;;
22007;SDS011;11168;56.976;24.168;2023-07-13T08:31:05;7.65;;;3.30;;
22007;SDS011;11168;56.976;24.168;2023-07-13T08:33:34;8.20;;;3.10;;
22007;SDS011;11168;56.976;24.168;2023-07-13T08:36:02;7.07;;;3.13;;
22007;SDS011;11168;56.976;24.168;2023-07-13T08:38:31;8.10;;;3.17;;
22007;SDS011;11168;56.976;24.168;2023-07-13T08:40:59;5.68;;;3.20;;
22007;SDS011;11168;56.976;24.168;2023-07-13T08:43:29;6.60;;;2.65;;
22007;SDS011;11168;56.976;24.168;2023-07-13T08:48:56;8.65;;;3.03;;
22007;SDS011;11168;56.976;24.168;2023-07-13T08:53:55;5.90;;;2.60;;
22007;SDS011;11168;56.976;24.168;2023-07-13T08:56:27;5.00;;;2.38;;
22007;SDS011;11168;56.976;24.168;2023-07-13T08:58:57;5.38;;;2.85;;
22007;SDS011;11168;56.976;24.168;2023-07-13T09:01:31;8.35;;;4.13;;
22007;SDS011;11168;56.976;24.168;2023-07-13T09:04:18;9.27;;;2.35;;
22007;SDS011;11168;56.976;24.168;2023-07-13T09:07:11;2.92;;;2.42;;
22007;SDS011;11168;56.976;24.168;2023-07-13T09:18:03;5.22;;;2.08;;
22007;SDS011;11168;56.976;24.168;2023-07-13T09:20:42;5.35;;;2.20;;
22007;SDS011;11168;56.976;24.168;2023-07-13T09:23:30;2.90;;;1.90;;
22007;SDS011;11168;56.976;24.168;2023-07-13T09:26:02;6.10;;;1.90;;
22007;SDS011;11168;56.976;24.168;2023-07-13T09:28:40;3.50;;;1.70;;
22007;SDS011;11168;56.976;24.168;2023-07-13T09:33:50;5.25;;;2.15;;
22007;SDS011;11168;56.976;24.168;2023-07-13T09:36:22;2.85;;;1.80;;
22007;SDS011;11168;56.976;24.168;2023-07-13T09:39:15;1.60;;;1.50;;
22007;SDS011;11168;56.976;24.168;2023-07-13T09:41:50;2.25;;;1.52;;
22007;SDS011;11168;56.976;24.168;2023-07-13T09:44:28;5.47;;;1.55;;
22007;SDS011;11168;56.976;24.168;2023-07-13T09:46:58;2.70;;;1.40;;
22007;SDS011;11168;56.976;24.168;2023-07-13T09:49:26;1.63;;;1.27;;
22007;SDS011;11168;56.976;24.168;2023-07-13T09:52:03;6.30;;;4.32;;
22007;SDS011;11168;56.976;24.168;2023-07-13T09:54:33;3.40;;;1.80;;
22007;SDS011;11168;56.976;24.168;2023-07-13T09:57:03;2.90;;;1.77;;
22007;SDS011;11168;56.976;24.168;2023-07-13T09:59:44;3.03;;;1.50;;
22007;SDS011;11168;56.976;24.168;2023-07-13T10:02:29;6.15;;;1.77;;
22007;SDS011;11168;56.976;24.168;2023-07-13T10:05:05;4.25;;;1.50;;
22007;SDS011;11168;56.976;24.168;2023-07-13T10:07:43;4.85;;;1.52;;
22007;SDS011;11168;56.976;24.168;2023-07-13T10:10:15;2.25;;;1.40;;
22007;SDS011;11168;56.976;24.168;2023-07-13T10:12:44;2.05;;;1.30;;
22007;SDS011;11168;56.976;24.168;2023-07-13T10:15:15;2.92;;;1.25;;
22007;SDS011;11168;56.976;24.168;2023-07-13T10:17:50;2.38;;;1.20;;
22007;SDS011;11168;56.976;24.168;2023-07-13T10:20:19;1.92;;;1.27;;
22007;SDS011;11168;56.976;24.168;2023-07-13T10:23:00;2.78;;;1.15;;
22007;SDS011;11168;56.976;24.168;2023-07-13T10:25:32;3.33;;;1.30;;
22007;SDS011;11168;56.976;24.168;2023-07-13T10:28:04;3.65;;;1.30;;
22007;SDS011;11168;56.976;24.168;2023-07-13T10:30:40;3.42;;;1.30;;
22007;SDS011;11168;56.976;24.168;2023-07-13T10:33:12;3.70;;;1.38;;
22007;SDS011;11168;56.976;24.168;2023-07-13T10:35:41;2.90;;;1.23;;
22007;SDS011;11168;56.976;24.168;2023-07-13T10:38:11;2.10;;;1.20;;
22007;SDS011;11168;56.976;24.168;2023-07-13T10:40:48;3.30;;;1.17;;
22007;SDS011;11168;56.976;24.168;2023-07-13T10:43:28;1.58;;;1.10;;
22007;SDS011;11168;56.976;24.168;2023-07-13T10:46:04;2.35;;;1.08;;
22007;SDS011;11168;56.976;24.168;2023-07-13T10:48:34;5.82;;;1.58;;
22007;SDS011;11168;56.976;24.168;2023-07-13T10:51:03;2.65;;;1.38;;
22007;SDS011;11168;56.976;24.168;2023-07-13T10:53:34;5.83;;;2.13;;
22007;SDS011;11168;56.976;24.168;2023-07-13T10:56:03;4.38;;;1.75;;
22007;SDS011;11168;56.976;24.168;2023-07-13T10:58:38;4.80;;;2.60;;
22007;SDS011;11168;56.976;24.168;2023-07-13T11:01:11;4.70;;;2.60;;
22007;SDS011;11168;56.976;24.168;2023-07-13T11:06:33;4.05;;;1.95;;
22007;SDS011;11168;56.976;24.168;2023-07-13T11:11:45;4.10;;;2.88;;
22007;SDS011;11168;56.976;24.168;2023-07-13T11:18:11;2.55;;;1.70;;
22007;SDS011;11168;56.976;24.168;2023-07-13T11:22:50;4.25;;;2.10;;
22007;SDS011;11168;56.976;24.168;2023-07-13T11:33:25;2.97;;;2.30;;
22007;SDS011;11168;56.976;24.168;2023-07-13T11:36:15;4.65;;;2.30;;
22007;SDS011;11168;56.976;24.168;2023-07-13T11:38:47;3.63;;;2.38;;
22007;SDS011;11168;56.976;24.168;2023-07-13T11:41:35;3.20;;;2.83;;
22007;SDS011;11168;56.976;24.168;2023-07-13T11:44:16;5.25;;;2.53;;
22007;SDS011;11168;56.976;24.168;2023-07-13T11:46:48;3.47;;;2.15;;
22007;SDS011;11168;56.976;24.168;2023-07-13T11:49:24;7.15;;;2.70;;
22007;SDS011;11168;56.976;24.168;2023-07-13T11:51:58;7.45;;;2.25;;
22007;SDS011;11168;56.976;24.168;2023-07-13T11:54:28;3.33;;;2.20;;
22007;SDS011;11168;56.976;24.168;2023-07-13T11:57:10;8.88;;;2.20;;
22007;SDS011;11168;56.976;24.168;2023-07-13T11:59:49;6.05;;;2.75;;
22007;SDS011;11168;56.976;24.168;2023-07-13T12:02:28;4.72;;;3.17;;
22007;SDS011;11168;56.976;24.168;2023-07-13T12:04:59;5.38;;;3.45;;
22007;SDS011;11168;56.976;24.168;2023-07-13T12:07:31;5.35;;;3.78;;
22007;SDS011;11168;56.976;24.168;2023-07-13T12:12:36;3.85;;;2.78;;
22007;SDS011;11168;56.976;24.168;2023-07-13T12:15:07;3.72;;;3.13;;
22007;SDS011;11168;56.976;24.168;2023-07-13T12:20:07;6.35;;;4.25;;
22007;SDS011;11168;56.976;24.168;2023-07-13T12:22:50;4.97;;;4.38;;
22007;SDS011;11168;56.976;24.168;2023-07-13T12:25:19;5.45;;;3.33;;
22007;SDS011;11168;56.976;24.168;2023-07-13T12:27:48;2.95;;;1.50;;
22007;SDS011;11168;56.976;24.168;2023-07-13T12:30:27;2.60;;;1.70;;
22007;SDS011;11168;56.976;24.168;2023-07-13T12:33:07;1.48;;;1.10;;
22007;SDS011;11168;56.976;24.168;2023-07-13T12:35:42;5.23;;;1.50;;
22007;SDS011;11168;56.976;24.168;2023-07-13T12:38:15;4.13;;;1.20;;
22007;SDS011;11168;56.976;24.168;2023-07-13T12:40:43;4.82;;;1.40;;
22007;SDS011;11168;56.976;24.168;2023-07-13T12:43:13;1.92;;;1.17;;
22007;SDS011;11168;56.976;24.168;2023-07-13T12:45:56;3.55;;;1.10;;
22007;SDS011;11168;56.976;24.168;2023-07-13T12:48:25;8.20;;;1.55;;
22007;SDS011;11168;56.976;24.168;2023-07-13T12:51:11;3.50;;;1.10;;
22007;SDS011;11168;56.976;24.168;2023-07-13T12:53:41;1.75;;;0.98;;
22007;SDS011;11168;56.976;24.168;2023-07-13T12:56:18;3.25;;;1.00;;
22007;SDS011;11168;56.976;24.168;2023-07-13T12:58:56;1.67;;;0.88;;
22007;SDS011;11168;56.976;24.168;2023-07-13T13:01:26;1.55;;;1.00;;
22007;SDS011;11168;56.976;24.168;2023-07-13T13:03:55;1.48;;;0.82;;
22007;SDS011;11168;56.976;24.168;2023-07-13T13:06:24;3.63;;;1.10;;
22007;SDS011;11168;56.976;24.168;2023-07-13T13:08:57;2.47;;;1.00;;
22007;SDS011;11168;56.976;24.168;2023-07-13T13:11:26;2.03;;;1.00;;
22007;SDS011;11168;56.976;24.168;2023-07-13T13:13:54;1.55;;;0.80;;
22007;SDS011;11168;56.976;24.168;2023-07-13T13:21:48;3.78;;;1.02;;
22007;SDS011;11168;56.976;24.168;2023-07-13T13:24:20;3.15;;;1.15;;
22007;SDS011;11168;56.976;24.168;2023-07-13T13:26:50;2.22;;;1.30;;
22007;SDS011;11168;56.976;24.168;2023-07-13T13:29:19;4.10;;;1.20;;
22007;SDS011;11168;56.976;24.168;2023-07-13T13:31:47;2.55;;;1.10;;
22007;SDS011;11168;56.976;24.168;2023-07-13T13:34:16;2.92;;;1.45;;
22007;SDS011;11168;56.976;24.168;2023-07-13T13:36:44;1.55;;;1.30;;
22007;SDS011;11168;56.976;24.168;2023-07-13T13:39:35;2.40;;;1.33;;
22007;SDS011;11168;56.976;24.168;2023-07-13T13:42:03;2.35;;;1.20;;
22007;SDS011;11168;56.976;24.168;2023-07-13T13:44:31;2.45;;;1.35;;
22007;SDS011;11168;56.976;24.168;2023-07-13T13:46:58;2.30;;;1.50;;
22007;SDS011;11168;56.976;24.168;2023-07-13T13:49:26;3.60;;;1.55;;
22007;SDS011;11168;56.976;24.168;2023-07-13T13:51:54;3.08;;;1.65;;
22007;SDS011;11168;56.976;24.168;2023-07-13T13:54:22;2.97;;;1.50;;
22007;SDS011;11168;56.976;24.168;2023-07-13T13:56:52;5.25;;;1.65;;
22007;SDS011;11168;56.976;24.168;2023-07-13T13:59:19;3.15;;;1.70;;
22007;SDS011;11168;56.976;24.168;2023-07-13T14:01:47;2.63;;;1.90;;
22007;SDS011;11168;56.976;24.168;2023-07-13T14:04:19;3.03;;;1.80;;
22007;SDS011;11168;56.976;24.168;2023-07-13T14:06:47;2.22;;;1.77;;
22007;SDS011;11168;56.976;24.168;2023-07-13T14:09:16;3.30;;;1.70;;
22007;SDS011;11168;56.976;24.168;2023-07-13T14:11:46;2.88;;;1.60;;
22007;SDS011;11168;56.976;24.168;2023-07-13T14:14:18;3.30;;;1.73;;
22007;SDS011;11168;56.976;24.168;2023-07-13T14:19:20;5.18;;;2.10;;
22007;SDS011;11168;56.976;24.168;2023-07-13T14:21:47;2.00;;;1.60;;
22007;SDS011;11168;56.976;24.168;2023-07-13T14:24:16;4.47;;;1.95;;
22007;SDS011;11168;56.976;24.168;2023-07-13T14:26:45;2.90;;;1.50;;
22007;SDS011;11168;56.976;24.168;2023-07-13T14:29:14;4.85;;;1.70;;
22007;SDS011;11168;56.976;24.168;2023-07-13T14:31:48;4.90;;;1.70;;
22007;SDS011;11168;56.976;24.168;2023-07-13T14:34:15;4.50;;;1.40;;
22007;SDS011;11168;56.976;24.168;2023-07-13T14:36:44;2.95;;;1.50;;
22007;SDS011;11168;56.976;24.168;2023-07-13T14:39:15;2.90;;;1.50;;
22007;SDS011;11168;56.976;24.168;2023-07-13T14:41:49;2.78;;;1.58;;
22007;SDS011;11168;56.976;24.168;2023-07-13T14:44:21;2.60;;;1.50;;
22007;SDS011;11168;56.976;24.168;2023-07-13T14:46:52;4.43;;;1.60;;
22007;SDS011;11168;56.976;24.168;2023-07-13T14:49:41;5.55;;;1.63;;
22007;SDS011;11168;56.976;24.168;2023-07-13T14:52:11;4.68;;;1.60;;
22007;SDS011;11168;56.976;24.168;2023-07-13T14:59:39;1.92;;;1.10;;
22007;SDS011;11168;56.976;24.168;2023-07-13T15:02:24;3.80;;;1.80;;
22007;SDS011;11168;56.976;24.168;2023-07-13T15:04:59;3.55;;;1.60;;
22007;SDS011;11168;56.976;24.168;2023-07-13T15:07:27;3.15;;;1.63;;
22007;SDS011;11168;56.976;24.168;2023-07-13T15:09:54;3.33;;;1.50;;
22007;SDS011;11168;56.976;24.168;2023-07-13T15:12:21;3.85;;;1.50;;
22007;SDS011;11168;56.976;24.168;2023-07-13T15:14:48;2.92;;;1.58;;
22007;SDS011;11168;56.976;24.168;2023-07-13T15:17:20;4.35;;;1.63;;
22007;SDS011;11168;56.976;24.168;2023-07-13T15:19:48;4.00;;;1.50;;
22007;SDS011;11168;56.976;24.168;2023-07-13T15:22:16;5.20;;;1.85;;
22007;SDS011;11168;56.976;24.168;2023-07-13T15:24:42;2.92;;;1.33;;
22007;SDS011;11168;56.976;24.168;2023-07-13T15:27:13;3.15;;;1.60;;
22007;SDS011;11168;56.976;24.168;2023-07-13T15:29:40;6.30;;;1.67;;
22007;SDS011;11168;56.976;24.168;2023-07-13T15:32:15;8.52;;;1.55;;
22007;SDS011;11168;56.976;24.168;2023-07-13T15:34:42;3.90;;;1.60;;
22007;SDS011;11168;56.976;24.168;2023-07-13T15:37:15;3.40;;;1.60;;
22007;SDS011;11168;56.976;24.168;2023-07-13T15:39:45;7.25;;;2.10;;
22007;SDS011;11168;56.976;24.168;2023-07-13T15:42:13;3.05;;;1.52;;
22007;SDS011;11168;56.976;24.168;2023-07-13T15:44:42;5.88;;;1.77;;
22007;SDS011;11168;56.976;24.168;2023-07-13T15:47:11;1.63;;;1.27;;
22007;SDS011;11168;56.976;24.168;2023-07-13T15:49:39;3.08;;;1.70;;
22007;SDS011;11168;56.976;24.168;2023-07-13T15:52:27;4.72;;;1.60;;
22007;SDS011;11168;56.976;24.168;2023-07-13T15:54:55;6.68;;;2.08;;
22007;SDS011;11168;56.976;24.168;2023-07-13T15:57:24;5.47;;;1.42;;
22007;SDS011;11168;56.976;24.168;2023-07-13T15:59:51;6.43;;;1.75;;
22007;SDS011;11168;56.976;24.168;2023-07-13T16:02:19;4.75;;;1.35;;
22007;SDS011;11168;56.976;24.168;2023-07-13T16:04:47;3.35;;;1.80;;
22007;SDS011;11168;56.976;24.168;2023-07-13T16:07:14;3.55;;;1.50;;
22007;SDS011;11168;56.976;24.168;2023-07-13T16:09:48;6.10;;;1.95;;
22007;SDS011;11168;56.976;24.168;2023-07-13T16:12:16;5.28;;;1.60;;
22007;SDS011;11168;56.976;24.168;2023-07-13T16:14:43;7.60;;;1.60;;
22007;SDS011;11168;56.976;24.168;2023-07-13T16:17:11;3.72;;;1.65;;
22007;SDS011;11168;56.976;24.168;2023-07-13T16:19:40;4.20;;;1.88;;
22007;SDS011;11168;56.976;24.168;2023-07-13T16:22:15;7.78;;;1.70;;
22007;SDS011;11168;56.976;24.168;2023-07-13T16:24:44;5.50;;;2.00;;
22007;SDS011;11168;56.976;24.168;2023-07-13T16:27:11;5.32;;;1.60;;
22007;SDS011;11168;56.976;24.168;2023-07-13T16:29:40;4.82;;;1.60;;
22007;SDS011;11168;56.976;24.168;2023-07-13T16:32:12;3.22;;;1.77;;
22007;SDS011;11168;56.976;24.168;2023-07-13T16:34:41;3.45;;;1.55;;
22007;SDS011;11168;56.976;24.168;2023-07-13T16:37:17;3.72;;;1.90;;
22007;SDS011;11168;56.976;24.168;2023-07-13T16:39:52;7.05;;;2.00;;
22007;SDS011;11168;56.976;24.168;2023-07-13T16:42:24;3.20;;;1.90;;
22007;SDS011;11168;56.976;24.168;2023-07-13T16:44:52;4.03;;;1.90;;
22007;SDS011;11168;56.976;24.168;2023-07-13T16:47:20;6.28;;;2.15;;
22007;SDS011;11168;56.976;24.168;2023-07-13T16:49:49;4.32;;;1.92;;
22007;SDS011;11168;56.976;24.168;2023-07-13T16:52:17;3.78;;;1.70;;
22007;SDS011;11168;56.976;24.168;2023-07-13T16:57:16;3.10;;;1.60;;
22007;SDS011;11168;56.976;24.168;2023-07-13T16:59:55;4.35;;;1.92;;
22007;SDS011;11168;56.976;24.168;2023-07-13T17:04:53;2.95;;;1.40;;
22007;SDS011;11168;56.976;24.168;2023-07-13T17:07:22;3.42;;;1.63;;
22007;SDS011;11168;56.976;24.168;2023-07-13T17:09:50;4.18;;;1.70;;
22007;SDS011;11168;56.976;24.168;2023-07-13T17:12:18;7.35;;;1.40;;
22007;SDS011;11168;56.976;24.168;2023-07-13T17:14:48;5.82;;;1.55;;
22007;SDS011;11168;56.976;24.168;2023-07-13T17:17:16;4.13;;;2.20;;
22007;SDS011;11168;56.976;24.168;2023-07-13T17:19:45;4.30;;;1.70;;
22007;SDS011;11168;56.976;24.168;2023-07-13T17:22:17;4.78;;;1.40;;
22007;SDS011;11168;56.976;24.168;2023-07-13T17:24:45;5.40;;;1.80;;
22007;SDS011;11168;56.976;24.168;2023-07-13T17:27:15;5.50;;;1.52;;
22007;SDS011;11168;56.976;24.168;2023-07-13T17:29:42;4.10;;;1.40;;
22007;SDS011;11168;56.976;24.168;2023-07-13T17:32:15;4.28;;;1.90;;
22007;SDS011;11168;56.976;24.168;2023-07-13T17:34:44;5.95;;;2.28;;
22007;SDS011;11168;56.976;24.168;2023-07-13T17:37:15;3.72;;;1.70;;
22007;SDS011;11168;56.976;24.168;2023-07-13T17:39:44;4.60;;;1.80;;
22007;SDS011;11168;56.976;24.168;2023-07-13T17:42:11;4.40;;;1.75;;
22007;SDS011;11168;56.976;24.168;2023-07-13T17:44:39;4.13;;;1.85;;
22007;SDS011;11168;56.976;24.168;2023-07-13T17:47:23;3.67;;;1.48;;
22007;SDS011;11168;56.976;24.168;2023-07-13T17:49:53;5.10;;;1.70;;
22007;SDS011;11168;56.976;24.168;2023-07-13T17:52:21;3.42;;;1.60;;
22007;SDS011;11168;56.976;24.168;2023-07-13T17:54:51;3.85;;;2.22;;
22007;SDS011;11168;56.976;24.168;2023-07-13T17:57:18;5.20;;;1.75;;
22007;SDS011;11168;56.976;24.168;2023-07-13T17:59:45;3.28;;;1.83;;
22007;SDS011;11168;56.976;24.168;2023-07-13T18:02:19;4.30;;;1.52;;
22007;SDS011;11168;56.976;24.168;2023-07-13T18:04:48;2.72;;;1.55;;
22007;SDS011;11168;56.976;24.168;2023-07-13T18:07:16;5.75;;;1.80;;
22007;SDS011;11168;56.976;24.168;2023-07-13T18:09:45;6.85;;;1.92;;
22007;SDS011;11168;56.976;24.168;2023-07-13T18:12:13;3.80;;;1.55;;
22007;SDS011;11168;56.976;24.168;2023-07-13T18:14:41;2.22;;;1.30;;
22007;SDS011;11168;56.976;24.168;2023-07-13T18:17:10;5.88;;;1.73;;
22007;SDS011;11168;56.976;24.168;2023-07-13T18:19:41;3.30;;;1.50;;
22007;SDS011;11168;56.976;24.168;2023-07-13T18:22:12;3.72;;;1.63;;
22007;SDS011;11168;56.976;24.168;2023-07-13T18:24:41;4.80;;;1.63;;
22007;SDS011;11168;56.976;24.168;2023-07-13T18:27:09;2.90;;;1.30;;
22007;SDS011;11168;56.976;24.168;2023-07-13T18:29:37;4.78;;;1.63;;
22007;SDS011;11168;56.976;24.168;2023-07-13T18:32:05;4.18;;;1.80;;
22007;SDS011;11168;56.976;24.168;2023-07-13T18:34:39;5.43;;;1.75;;
22007;SDS011;11168;56.976;24.168;2023-07-13T18:37:14;4.35;;;1.60;;
22007;SDS011;11168;56.976;24.168;2023-07-13T18:39:45;8.32;;;1.65;;
22007;SDS011;11168;56.976;24.168;2023-07-13T18:42:15;3.20;;;1.75;;
22007;SDS011;11168;56.976;24.168;2023-07-13T18:44:42;5.40;;;1.80;;
22007;SDS011;11168;56.976;24.168;2023-07-13T18:47:14;3.05;;;1.55;;
22007;SDS011;11168;56.976;24.168;2023-07-13T18:49:45;6.10;;;1.83;;
22007;SDS011;11168;56.976;24.168;2023-07-13T18:52:19;4.82;;;1.70;;
22007;SDS011;11168;56.976;24.168;2023-07-13T18:54:48;3.63;;;1.67;;
22007;SDS011;11168;56.976;24.168;2023-07-13T18:57:17;4.07;;;2.35;;
22007;SDS011;11168;56.976;24.168;2023-07-13T18:59:46;4.18;;;1.77;;
22007;SDS011;11168;56.976;24.168;2023-07-13T19:02:14;3.78;;;1.80;;
22007;SDS011;11168;56.976;24.168;2023-07-13T19:04:43;4.68;;;1.50;;
22007;SDS011;11168;56.976;24.168;2023-07-13T19:07:10;4.35;;;1.80;;
22007;SDS011;11168;56.976;24.168;2023-07-13T19:09:38;2.97;;;1.67;;
22007;SDS011;11168;56.976;24.168;2023-07-13T19:12:28;4.43;;;1.90;;
22007;SDS011;11168;56.976;24.168;2023-07-13T19:14:56;3.25;;;2.10;;
22007;SDS011;11168;56.976;24.168;2023-07-13T19:17:23;4.75;;;1.98;;
22007;SDS011;11168;56.976;24.168;2023-07-13T19:19:50;4.65;;;2.47;;
22007;SDS011;11168;56.976;24.168;2023-07-13T19:22:23;5.57;;;2.60;;
22007;SDS011;11168;56.976;24.168;2023-07-13T19:24:50;7.68;;;3.03;;
22007;SDS011;11168;56.976;24.168;2023-07-13T19:27:20;3.70;;;2.75;;
22007;SDS011;11168;56.976;24.168;2023-07-13T19:29:48;5.45;;;2.42;;
22007;SDS011;11168;56.976;24.168;2023-07-13T19:32:18;6.22;;;2.35;;
22007;SDS011;11168;56.976;24.168;2023-07-13T19:34:45;8.18;;;2.60;;
22007;SDS011;11168;56.976;24.168;2023-07-13T19:37:21;4.30;;;2.45;;
22007;SDS011;11168;56.976;24.168;2023-07-13T19:39:50;6.57;;;2.80;;
22007;SDS011;11168;56.976;24.168;2023-07-13T19:42:22;5.30;;;2.42;;
22007;SDS011;11168;56.976;24.168;2023-07-13T19:44:56;5.53;;;2.33;;
22007;SDS011;11168;56.976;24.168;2023-07-13T19:47:26;4.57;;;2.30;;
22007;SDS011;11168;56.976;24.168;2023-07-13T19:49:53;7.35;;;2.65;;
22007;SDS011;11168;56.976;24.168;2023-07-13T19:52:21;4.13;;;2.45;;
22007;SDS011;11168;56.976;24.168;2023-07-13T19:54:55;6.28;;;2.65;;
22007;SDS011;11168;56.976;24.168;2023-07-13T19:57:24;4.82;;;2.47;;
22007;SDS011;11168;56.976;24.168;2023-07-13T19:59:54;5.70;;;3.05;;
22007;SDS011;11168;56.976;24.168;2023-07-13T20:02:25;4.68;;;3.03;;
22007;SDS011;11168;56.976;24.168;2023-07-13T20:04:53;7.82;;;2.97;;
22007;SDS011;11168;56.976;24.168;2023-07-13T20:07:21;8.02;;;3.08;;
22007;SDS011;11168;56.976;24.168;2023-07-13T20:09:51;6.97;;;2.85;;
22007;SDS011;11168;56.976;24.168;2023-07-13T20:12:20;7.00;;;3.25;;
22007;SDS011;11168;56.976;24.168;2023-07-13T20:14:49;6.93;;;3.45;;
22007;SDS011;11168;56.976;24.168;2023-07-13T20:19:54;7.50;;;3.03;;
22007;SDS011;11168;56.976;24.168;2023-07-13T20:24:52;4.28;;;2.63;;
22007;SDS011;11168;56.976;24.168;2023-07-13T20:27:20;5.32;;;2.67;;
22007;SDS011;11168;56.976;24.168;2023-07-13T20:29:47;5.75;;;2.50;;
22007;SDS011;11168;56.976;24.168;2023-07-13T20:32:15;10.15;;;2.90;;
22007;SDS011;11168;56.976;24.168;2023-07-13T20:34:42;5.30;;;2.80;;
22007;SDS011;11168;56.976;24.168;2023-07-13T20:40:08;7.53;;;3.83;;
22007;SDS011;11168;56.976;24.168;2023-07-13T20:42:42;6.53;;;3.00;;
22007;SDS011;11168;56.976;24.168;2023-07-13T20:45:10;3.88;;;2.60;;
22007;SDS011;11168;56.976;24.168;2023-07-13T20:47:43;6.00;;;2.95;;
22007;SDS011;11168;56.976;24.168;2023-07-13T20:50:20;8.32;;;3.17;;
22007;SDS011;11168;56.976;24.168;2023-07-13T20:52:52;6.20;;;3.30;;
22007;SDS011;11168;56.976;24.168;2023-07-13T20:55:25;5.65;;;3.15;;
22007;SDS011;11168;56.976;24.168;2023-07-13T20:57:54;7.30;;;3.40;;
22007;SDS011;11168;56.976;24.168;2023-07-13T21:00:23;7.38;;;3.75;;
22007;SDS011;11168;56.976;24.168;2023-07-13T21:03:01;7.57;;;3.22;;
22007;SDS011;11168;56.976;24.168;2023-07-13T21:05:36;7.87;;;3.97;;
22007;SDS011;11168;56.976;24.168;2023-07-13T21:08:18;6.68;;;3.80;;
22007;SDS011;11168;56.976;24.168;2023-07-13T21:10:47;5.20;;;3.70;;
22007;SDS011;11168;56.976;24.168;2023-07-13T21:13:14;15.75;;;4.30;;
22007;SDS011;11168;56.976;24.168;2023-07-13T21:15:44;5.22;;;3.47;;
22007;SDS011;11168;56.976;24.168;2023-07-13T21:18:19;7.57;;;3.88;;
22007;SDS011;11168;56.976;24.168;2023-07-13T21:20:51;6.88;;;4.15;;
22007;SDS011;11168;56.976;24.168;2023-07-13T21:23:33;8.18;;;3.60;;
22007;SDS011;11168;56.976;24.168;2023-07-13T21:26:03;6.88;;;3.90;;
22007;SDS011;11168;56.976;24.168;2023-07-13T21:28:34;7.50;;;3.70;;
22007;SDS011;11168;56.976;24.168;2023-07-13T21:31:03;6.28;;;3.90;;
22007;SDS011;11168;56.976;24.168;2023-07-13T21:33:35;6.30;;;3.90;;
22007;SDS011;11168;56.976;24.168;2023-07-13T21:36:03;10.00;;;4.25;;
22007;SDS011;11168;56.976;24.168;2023-07-13T21:38:31;7.07;;;4.10;;
22007;SDS011;11168;56.976;24.168;2023-07-13T21:41:03;8.70;;;3.80;;
22007;SDS011;11168;56.976;24.168;2023-07-13T21:43:33;6.82;;;3.80;;
22007;SDS011;11168;56.976;24.168;2023-07-13T21:46:00;7.72;;;4.15;;
22007;SDS011;11168;56.976;24.168;2023-07-13T21:48:28;6.40;;;4.07;;
22007;SDS011;11168;56.976;24.168;2023-07-13T21:50:55;5.72;;;4.07;;
22007;SDS011;11168;56.976;24.168;2023-07-13T21:53:26;9.13;;;4.30;;
22007;SDS011;11168;56.976;24.168;2023-07-13T21:55:58;6.72;;;4.28;;
22007;SDS011;11168;56.976;24.168;2023-07-13T21:58:32;7.38;;;4.45;;
22007;SDS011;11168;56.976;24.168;2023-07-13T22:01:00;8.25;;;4.15;;
22007;SDS011;11168;56.976;24.168;2023-07-13T22:03:30;6.75;;;3.92;;
22007;SDS011;11168;56.976;24.168;2023-07-13T22:06:02;10.15;;;4.25;;
22007;SDS011;11168;56.976;24.168;2023-07-13T22:08:34;12.23;;;4.72;;
22007;SDS011;11168;56.976;24.168;2023-07-13T22:11:10;8.35;;;4.60;;
22007;SDS011;11168;56.976;24.168;2023-07-13T22:13:40;10.80;;;4.40;;
22007;SDS011;11168;56.976;24.168;2023-07-13T22:16:15;9.25;;;4.07;;
22007;SDS011;11168;56.976;24.168;2023-07-13T22:19:21;7.28;;;4.05;;
22007;SDS011;11168;56.976;24.168;2023-07-13T22:21:52;9.10;;;4.43;;
22007;SDS011;11168;56.976;24.168;2023-07-13T22:24:21;9.63;;;4.30;;
22007;SDS011;11168;56.976;24.168;2023-07-13T22:26:48;8.52;;;5.40;;
22007;SDS011;11168;56.976;24.168;2023-07-13T22:29:17;8.13;;;4.82;;
22007;SDS011;11168;56.976;24.168;2023-07-13T22:31:50;9.55;;;4.30;;
22007;SDS011;11168;56.976;24.168;2023-07-13T22:34:19;7.60;;;4.07;;
22007;SDS011;11168;56.976;24.168;2023-07-13T22:36:47;9.70;;;4.20;;
22007;SDS011;11168;56.976;24.168;2023-07-13T22:39:16;6.38;;;3.83;;
22007;SDS011;11168;56.976;24.168;2023-07-13T22:41:48;11.10;;;3.80;;
22007;SDS011;11168;56.976;24.168;2023-07-13T22:44:18;8.02;;;3.80;;
22007;SDS011;11168;56.976;24.168;2023-07-13T22:46:46;6.55;;;3.55;;
22007;SDS011;11168;56.976;24.168;2023-07-13T22:49:18;8.93;;;3.38;;
22007;SDS011;11168;56.976;24.168;2023-07-13T22:51:59;6.65;;;3.10;;
22007;SDS011;11168;56.976;24.168;2023-07-13T22:54:27;8.18;;;3.47;;
22007;SDS011;11168;56.976;24.168;2023-07-13T22:56:55;7.45;;;3.92;;
22007;SDS011;11168;56.976;24.168;2023-07-13T22:59:22;7.95;;;3.45;;
22007;SDS011;11168;56.976;24.168;2023-07-13T23:01:49;7.30;;;3.85;;
22007;SDS011;11168;56.976;24.168;2023-07-13T23:06:57;7.40;;;3.55;;
22007;SDS011;11168;56.976;24.168;2023-07-13T23:09:26;5.18;;;3.80;;
22007;SDS011;11168;56.976;24.168;2023-07-13T23:11:54;8.65;;;3.30;;
22007;SDS011;11168;56.976;24.168;2023-07-13T23:14:22;7.80;;;3.72;;
22007;SDS011;11168;56.976;24.168;2023-07-13T23:16:56;6.25;;;3.70;;
22007;SDS011;11168;56.976;24.168;2023-07-13T23:19:33;6.28;;;3.42;;
22007;SDS011;11168;56.976;24.168;2023-07-13T23:22:01;8.32;;;3.50;;
22007;SDS011;11168;56.976;24.168;2023-07-13T23:24:33;8.70;;;3.67;;
22007;SDS011;11168;56.976;24.168;2023-07-13T23:27:01;8.13;;;3.70;;
22007;SDS011;11168;56.976;24.168;2023-07-13T23:29:30;8.23;;;3.60;;
22007;SDS011;11168;56.976;24.168;2023-07-13T23:31:57;6.93;;;3.80;;
22007;SDS011;11168;56.976;24.168;2023-07-13T23:34:25;7.72;;;3.15;;
22007;SDS011;11168;56.976;24.168;2023-07-13T23:36:54;10.93;;;3.30;;
22007;SDS011;11168;56.976;24.168;2023-07-13T23:39:21;6.80;;;2.97;;
22007;SDS011;11168;56.976;24.168;2023-07-13T23:41:48;8.15;;;2.80;;
22007;SDS011;11168;56.976;24.168;2023-07-13T23:44:16;7.20;;;2.90;;
22007;SDS011;11168;56.976;24.168;2023-07-13T23:46:49;7.80;;;3.28;;
22007;SDS011;11168;56.976;24.168;2023-07-13T23:49:29;9.15;;;2.95;;
22007;SDS011;11168;56.976;24.168;2023-07-13T23:51:59;5.95;;;2.58;;
22007;SDS011;11168;56.976;24.168;2023-07-13T23:54:29;8.32;;;2.90;;
22007;SDS011;11168;56.976;24.168;2023-07-13T23:57:01;6.25;;;2.67;;
22007;SDS011;11168;56.976;24.168;2023-07-13T23:59:33;7.93;;;2.95;;
